Time;durP1;ratioP1;P1;durP2;ratioP2;P2;SDS_P1;SDS_P2;PMS_P1;PMS_P2;Temp;Humidity;BMP_temperature;BMP_pressure;BME280_temperature;BME280_humidity;BME280_pressure;Samples;Min_cycle;Max_cycle;Signal;HPM_P1;HPM_P2
2023/09/28 00:01:59;;;;;;;;;;;19.80;55.20;;;;;;5040070;28;93313;-61
2023/09/28 00:04:24;;;;;;;;;;;19.80;55.10;;;;;;5040747;27;92090;-61
2023/09/28 00:06:50;;;;;;;;;;;19.80;55.30;;;;;;5040608;27;93055;-59
2023/09/28 00:09:16;;;;;;;;;;;19.80;55.30;;;;;;5040198;28;93426;-61
2023/09/28 00:11:42;;;;;;;;;;;19.80;55.30;;;;;;5040767;27;92229;-61
2023/09/28 00:14:07;;;;;;;;;;;19.70;55.30;;;;;;5040551;28;92638;-61
2023/09/28 00:16:33;;;;;;;;;;;19.70;55.30;;;;;;5043588;27;92753;-61
2023/09/28 00:18:58;;;;;;;;;;;19.70;55.30;;;;;;5040339;28;92232;-62
2023/09/28 00:21:24;;;;;;;;;;;19.80;55.30;;;;;;5040069;28;93754;-61
2023/09/28 00:23:49;;;;;;;;;;;19.70;55.30;;;;;;5039708;27;93119;-61
2023/09/28 00:26:16;;;;;;;;;;;19.70;55.30;;;;;;5039028;28;97038;-61
2023/09/28 00:28:42;;;;;;;;;;;19.70;55.40;;;;;;5039092;28;93471;-61
2023/09/28 00:31:09;;;;;;;;;;;19.70;55.30;;;;;;5040487;28;92224;-62
2023/09/28 00:33:34;;;;;;;;;;;19.70;55.20;;;;;;5040537;28;92655;-61
2023/09/28 00:36:00;;;;;;;;;;;19.70;55.20;;;;;;5039680;28;93285;-62
2023/09/28 00:38:25;;;;;;;;;;;19.70;55.30;;;;;;5043178;27;92182;-61
2023/09/28 00:40:51;;;;;;;;;;;19.70;55.30;;;;;;5040142;28;93740;-61
2023/09/28 00:43:24;;;;;;;;;;;19.70;55.20;;;;;;5039849;28;92265;-61
2023/09/28 00:45:50;;;;;;;;;;;19.70;55.30;;;;;;5040382;28;92567;-62
2023/09/28 00:48:15;;;;;;;;;;;19.70;55.30;;;;;;5038977;27;93395;-62
2023/09/28 00:50:41;;;;;;;;;;;19.60;55.20;;;;;;5040148;27;92246;-61
2023/09/28 00:53:10;;;;;;;;;;;19.70;55.30;;;;;;5039703;27;92670;-61
2023/09/28 00:55:36;;;;;;;;;;;19.60;55.20;;;;;;5035591;28;93247;-62
2023/09/28 00:58:03;;;;;;;;;;;19.60;55.20;;;;;;5039401;27;92305;-62
2023/09/28 01:00:33;;;;;;;;;;;19.60;55.30;;;;;;5042455;28;93980;-62
2023/09/28 01:03:05;;;;;;;;;;;19.60;55.20;;;;;;5039775;27;92011;-62
2023/09/28 01:05:34;;;;;;;;;;;19.60;55.20;;;;;;5036567;28;92547;-62
2023/09/28 01:08:11;;;;;;;;;;;19.60;55.10;;;;;;5039008;27;93533;-61
2023/09/28 01:10:36;;;;;;;;;;;19.50;55.20;;;;;;5039659;27;92228;-61
2023/09/28 01:13:07;;;;;;;;;;;19.50;55.20;;;;;;5038782;28;93052;-62
2023/09/28 01:15:35;;;;;;;;;;;19.50;55.20;;;;;;5038957;27;93380;-62
2023/09/28 01:18:01;;;;;;;;;;;19.60;55.20;;;;;;5039731;28;92119;-61
2023/09/28 01:20:37;;;;;;;;;;;19.50;55.20;;;;;;5042368;28;92742;-61
2023/09/28 01:23:06;;;;;;;;;;;19.50;55.20;;;;;;5036012;28;92106;-61
2023/09/28 01:25:32;;;;;;;;;;;19.50;55.30;;;;;;5039590;27;92064;-61
2023/09/28 01:27:57;;;;;;;;;;;19.50;55.20;;;;;;5038533;28;92936;-61
2023/09/28 01:30:23;;;;;;;;;;;19.50;55.20;;;;;;5038605;27;91960;-61
2023/09/28 01:32:49;;;;;;;;;;;19.50;55.20;;;;;;5039449;27;92052;-61
2023/09/28 01:35:14;;;;;;;;;;;19.50;55.30;;;;;;5037322;27;93512;-61
2023/09/28 01:37:52;;;;;;;;;;;19.50;55.20;;;;;;5038730;28;93114;-61
2023/09/28 01:40:18;;;;;;;;;;;19.50;55.20;;;;;;5036278;28;93880;-62
2023/09/28 01:42:43;;;;;;;;;;;19.40;55.20;;;;;;5039350;27;93745;-62
2023/09/28 01:45:09;;;;;;;;;;;19.50;55.20;;;;;;5038147;28;92648;-62
2023/09/28 01:47:35;;;;;;;;;;;19.40;55.80;;;;;;5036915;27;94583;-61
2023/09/28 01:50:00;;;;;;;;;;;19.40;55.20;;;;;;5037270;27;92721;-62
2023/09/28 01:52:26;;;;;;;;;;;19.40;55.20;;;;;;5037379;27;92605;-61
2023/09/28 01:54:51;;;;;;;;;;;19.40;55.20;;;;;;5037951;28;92882;-62
2023/09/28 01:57:17;;;;;;;;;;;19.40;55.30;;;;;;5036119;28;92679;-61
2023/09/28 01:59:43;;;;;;;;;;;19.40;55.20;;;;;;5036777;27;92547;-62
2023/09/28 02:02:08;;;;;;;;;;;19.40;55.20;;;;;;5032291;27;94288;-62
2023/09/28 02:04:36;;;;;;;;;;;19.40;55.30;;;;;;5037447;28;92453;-61
2023/09/28 02:07:02;;;;;;;;;;;19.40;55.20;;;;;;5037030;28;93596;-61
2023/09/28 02:09:28;;;;;;;;;;;19.30;55.20;;;;;;5037849;28;92492;-61
2023/09/28 02:11:53;;;;;;;;;;;19.30;55.30;;;;;;5037300;28;92605;-61
2023/09/28 02:14:19;;;;;;;;;;;19.30;55.20;;;;;;5036722;28;93751;-62
2023/09/28 02:16:45;;;;;;;;;;;19.40;55.40;;;;;;5037164;27;92152;-61
2023/09/28 02:19:11;;;;;;;;;;;19.40;55.20;;;;;;5037517;27;92696;-62
2023/09/28 02:21:36;;;;;;;;;;;19.30;55.20;;;;;;5036073;28;92673;-61
2023/09/28 02:24:02;;;;;;;;;;;19.30;55.30;;;;;;5037649;28;92429;-61
2023/09/28 02:26:27;;;;;;;;;;;19.30;55.20;;;;;;5042927;27;93525;-61
2023/09/28 02:28:53;;;;;;;;;;;19.20;55.40;;;;;;5036901;28;92108;-61
2023/09/28 02:31:18;;;;;;;;;;;19.30;55.30;;;;;;5037488;28;93166;-62
2023/09/28 02:33:44;;;;;;;;;;;19.30;55.20;;;;;;5037022;28;93236;-61
2023/09/28 02:36:09;;;;;;;;;;;19.20;55.40;;;;;;5038238;27;92554;-61
2023/09/28 02:38:35;;;;;;;;;;;19.20;55.30;;;;;;5032807;27;93132;-62
2023/09/28 02:41:01;;;;;;;;;;;19.20;55.30;;;;;;5040640;27;93427;-61
2023/09/28 02:43:26;;;;;;;;;;;19.20;55.30;;;;;;5038269;28;91450;-62
2023/09/28 02:45:51;;;;;;;;;;;19.20;55.40;;;;;;5038727;28;92221;-61
2023/09/28 02:48:17;;;;;;;;;;;19.20;55.30;;;;;;5040151;27;93341;-61
2023/09/28 02:50:43;;;;;;;;;;;19.20;55.20;;;;;;5038468;28;93318;-62
2023/09/28 02:53:09;;;;;;;;;;;19.20;55.30;;;;;;5039238;28;93064;-62
2023/09/28 02:55:36;;;;;;;;;;;19.20;55.30;;;;;;5039338;28;92297;-61
2023/09/28 02:58:02;;;;;;;;;;;19.20;55.30;;;;;;5040619;27;92625;-62
2023/09/28 03:00:32;;;;;;;;;;;19.20;55.30;;;;;;5038796;28;93621;-61
2023/09/28 03:03:00;;;;;;;;;;;19.20;55.40;;;;;;5040109;28;95071;-61
2023/09/28 03:05:28;;;;;;;;;;;19.20;55.30;;;;;;5041094;27;93124;-61
2023/09/28 03:07:54;;;;;;;;;;;19.10;55.40;;;;;;5036858;28;92576;-62
2023/09/28 03:10:19;;;;;;;;;;;19.20;55.30;;;;;;5043318;27;92190;-62
2023/09/28 03:12:46;;;;;;;;;;;19.10;55.30;;;;;;5040291;28;93347;-62
2023/09/28 03:15:13;;;;;;;;;;;19.10;55.30;;;;;;5038129;28;93106;-61
2023/09/28 03:17:40;;;;;;;;;;;19.10;55.30;;;;;;5041659;28;93596;-61
2023/09/28 03:20:25;;;;;;;;;;;19.10;55.30;;;;;;5039929;27;93136;-61
2023/09/28 03:22:50;;;;;;;;;;;19.10;55.40;;;;;;5039507;28;92486;-61
2023/09/28 03:25:17;;;;;;;;;;;19.00;55.30;;;;;;5040578;28;92815;-62
2023/09/28 03:27:47;;;;;;;;;;;19.00;55.30;;;;;;5033940;28;96583;-61
2023/09/28 03:30:13;;;;;;;;;;;19.00;55.30;;;;;;5044088;27;92617;-62
2023/09/28 03:32:39;;;;;;;;;;;19.10;55.40;;;;;;5040335;27;92407;-61
2023/09/28 03:35:07;;;;;;;;;;;19.00;55.30;;;;;;5040623;27;92311;-62
2023/09/28 03:37:33;;;;;;;;;;;19.00;55.30;;;;;;5041205;28;92771;-61
2023/09/28 03:40:00;;;;;;;;;;;19.00;55.30;;;;;;5040268;27;94154;-62
2023/09/28 03:42:26;;;;;;;;;;;19.00;55.30;;;;;;5039854;28;93278;-62
2023/09/28 03:44:52;;;;;;;;;;;19.00;55.30;;;;;;5039383;27;92525;-61
2023/09/28 03:47:18;;;;;;;;;;;19.00;55.30;;;;;;5040767;28;93172;-62
2023/09/28 03:49:43;;;;;;;;;;;19.00;55.30;;;;;;5041325;28;92169;-61
2023/09/28 03:52:09;;;;;;;;;;;19.00;55.30;;;;;;5042473;27;93048;-61
2023/09/28 03:54:34;;;;;;;;;;;19.00;55.40;;;;;;5040465;28;92240;-61
2023/09/28 03:57:00;;;;;;;;;;;19.00;55.40;;;;;;5040333;28;93828;-61
2023/09/28 03:59:26;;;;;;;;;;;18.90;54.90;;;;;;5040152;27;93621;-61
2023/09/28 04:01:51;;;;;;;;;;;18.90;55.40;;;;;;5039603;28;92205;-61
2023/09/28 04:04:17;;;;;;;;;;;18.90;55.40;;;;;;5039240;27;93149;-62
2023/09/28 04:06:42;;;;;;;;;;;18.90;54.90;;;;;;5039495;28;93435;-61
2023/09/28 04:09:08;;;;;;;;;;;18.90;55.50;;;;;;5039763;28;92629;-61
2023/09/28 04:11:34;;;;;;;;;;;18.90;55.50;;;;;;5040988;27;92869;-61
2023/09/28 04:14:01;;;;;;;;;;;18.90;55.50;;;;;;5042309;27;93639;-61
2023/09/28 04:16:27;;;;;;;;;;;18.90;55.60;;;;;;5038877;28;92963;-61
2023/09/28 04:18:52;;;;;;;;;;;18.90;55.50;;;;;;5040250;27;93557;-62
2023/09/28 04:21:18;;;;;;;;;;;18.90;55.50;;;;;;5040694;28;91439;-61
2023/09/28 04:23:43;;;;;;;;;;;18.80;55.20;;;;;;5040693;27;92142;-62
2023/09/28 04:26:09;;;;;;;;;;;18.90;55.30;;;;;;5039967;27;93289;-61
2023/09/28 04:28:35;;;;;;;;;;;18.80;55.20;;;;;;5039601;28;93088;-62
2023/09/28 04:31:00;;;;;;;;;;;18.80;55.20;;;;;;5040620;27;93569;-61
2023/09/28 04:33:26;;;;;;;;;;;18.80;55.20;;;;;;5038428;28;92962;-61
2023/09/28 04:35:51;;;;;;;;;;;18.80;55.20;;;;;;5043670;28;92161;-61
2023/09/28 04:38:17;;;;;;;;;;;18.80;55.20;;;;;;5039458;28;93314;-61
2023/09/28 04:40:42;;;;;;;;;;;18.80;55.10;;;;;;5038894;28;92343;-62
2023/09/28 04:43:08;;;;;;;;;;;18.80;55.00;;;;;;5040521;27;92179;-61
2023/09/28 04:45:34;;;;;;;;;;;18.80;55.00;;;;;;5039941;27;92348;-61
2023/09/28 04:48:00;;;;;;;;;;;18.70;55.00;;;;;;5040332;27;92215;-61
2023/09/28 04:50:25;;;;;;;;;;;18.70;54.90;;;;;;5040448;28;92592;-62
2023/09/28 04:52:51;;;;;;;;;;;18.70;54.90;;;;;;5039223;28;94875;-61
2023/09/28 04:55:16;;;;;;;;;;;18.70;55.10;;;;;;5040247;28;92292;-62
2023/09/28 04:57:42;;;;;;;;;;;18.70;55.00;;;;;;5042741;28;92891;-61
2023/09/28 05:00:09;;;;;;;;;;;18.70;55.00;;;;;;5040616;27;92178;-61
2023/09/28 05:02:35;;;;;;;;;;;18.70;54.90;;;;;;5039651;28;92867;-61
2023/09/28 05:05:01;;;;;;;;;;;18.70;55.00;;;;;;5039697;28;93188;-61
2023/09/28 05:07:26;;;;;;;;;;;18.70;55.10;;;;;;5039739;28;92213;-61
2023/09/28 05:09:52;;;;;;;;;;;18.70;55.10;;;;;;5036824;28;92652;-61
2023/09/28 05:12:17;;;;;;;;;;;18.70;55.10;;;;;;5039410;28;93778;-61
2023/09/28 05:14:43;;;;;;;;;;;18.70;54.90;;;;;;5039284;27;92277;-61
2023/09/28 05:17:08;;;;;;;;;;;18.70;54.90;;;;;;5038593;28;92975;-61
2023/09/28 05:19:34;;;;;;;;;;;18.70;54.90;;;;;;5041793;28;93849;-62
2023/09/28 05:21:59;;;;;;;;;;;18.70;54.90;;;;;;5038851;28;92445;-61
2023/09/28 05:24:25;;;;;;;;;;;18.70;55.00;;;;;;5035493;28;93326;-61
2023/09/28 05:26:50;;;;;;;;;;;18.60;55.10;;;;;;5039064;28;92479;-61
2023/09/28 05:29:16;;;;;;;;;;;18.70;55.10;;;;;;5038690;28;92832;-61
2023/09/28 05:31:42;;;;;;;;;;;18.70;55.10;;;;;;5037961;27;93251;-61
2023/09/28 05:34:07;;;;;;;;;;;18.70;55.10;;;;;;5040171;27;91397;-61
2023/09/28 05:36:33;;;;;;;;;;;18.70;55.00;;;;;;5039415;27;92075;-61
2023/09/28 05:38:59;;;;;;;;;;;18.70;55.00;;;;;;5040985;28;94081;-62
2023/09/28 05:41:24;;;;;;;;;;;18.60;54.50;;;;;;5038179;28;92998;-61
2023/09/28 05:43:50;;;;;;;;;;;18.60;55.00;;;;;;5038906;28;93751;-61
2023/09/28 05:46:15;;;;;;;;;;;18.60;55.10;;;;;;5039126;28;92153;-62
2023/09/28 05:48:41;;;;;;;;;;;18.70;55.00;;;;;;5039510;27;92860;-61
2023/09/28 05:51:07;;;;;;;;;;;18.60;55.00;;;;;;5038817;28;93262;-61
2023/09/28 05:53:32;;;;;;;;;;;18.60;54.90;;;;;;5039341;28;92377;-62
2023/09/28 05:55:58;;;;;;;;;;;18.70;55.00;;;;;;5039540;28;92851;-61
2023/09/28 05:58:24;;;;;;;;;;;18.70;54.90;;;;;;5039494;28;92503;-62
2023/09/28 06:00:50;;;;;;;;;;;18.60;55.00;;;;;;5041887;27;92142;-61
2023/09/28 06:03:15;;;;;;;;;;;18.70;55.00;;;;;;5038553;27;92987;-62
2023/09/28 06:05:41;;;;;;;;;;;18.60;55.00;;;;;;5037086;28;93206;-61
2023/09/28 06:08:07;;;;;;;;;;;18.70;55.00;;;;;;5038819;28;92794;-61
2023/09/28 06:10:33;;;;;;;;;;;18.70;54.90;;;;;;5038488;28;93491;-61
2023/09/28 06:12:59;;;;;;;;;;;18.70;54.90;;;;;;5039252;27;92152;-61
2023/09/28 06:15:24;;;;;;;;;;;18.70;54.90;;;;;;5038418;28;92575;-61
2023/09/28 06:17:50;;;;;;;;;;;18.70;55.00;;;;;;5038499;28;92622;-61
2023/09/28 06:20:17;;;;;;;;;;;18.70;55.10;;;;;;5039045;28;92561;-61
2023/09/28 06:22:42;;;;;;;;;;;18.70;55.00;;;;;;5041617;27;92591;-61
2023/09/28 06:25:08;;;;;;;;;;;18.70;55.00;;;;;;5040875;27;92246;-61
2023/09/28 06:27:34;;;;;;;;;;;18.70;55.70;;;;;;5045123;27;92131;-61
2023/09/28 06:30:00;;;;;;;;;;;18.70;55.10;;;;;;5044398;28;94472;-61
2023/09/28 06:32:25;;;;;;;;;;;18.70;55.10;;;;;;5045286;27;92234;-61
2023/09/28 06:34:51;;;;;;;;;;;18.70;55.60;;;;;;5045522;28;92551;-62
2023/09/28 06:37:17;;;;;;;;;;;18.70;55.10;;;;;;5044244;28;93622;-61
2023/09/28 06:39:42;;;;;;;;;;;18.70;55.10;;;;;;5043470;28;92284;-62
2023/09/28 06:42:08;;;;;;;;;;;18.70;55.10;;;;;;5045241;28;92603;-61
2023/09/28 06:44:36;;;;;;;;;;;18.70;55.20;;;;;;5047807;28;92918;-61
2023/09/28 06:47:02;;;;;;;;;;;18.70;55.20;;;;;;5045302;27;92791;-61
2023/09/28 06:49:27;;;;;;;;;;;18.70;55.20;;;;;;5044511;28;94715;-61
2023/09/28 06:51:53;;;;;;;;;;;18.70;55.20;;;;;;5045234;27;92160;-61
2023/09/28 06:54:20;;;;;;;;;;;18.60;55.10;;;;;;5044704;28;92972;-62
2023/09/28 06:56:49;;;;;;;;;;;18.70;55.20;;;;;;5044541;27;93433;-61
2023/09/28 06:59:14;;;;;;;;;;;18.70;55.20;;;;;;5045069;28;92080;-61
2023/09/28 07:01:40;;;;;;;;;;;18.60;55.10;;;;;;5044166;27;92089;-61
2023/09/28 07:04:06;;;;;;;;;;;18.60;55.10;;;;;;5044598;28;93232;-61
2023/09/28 07:06:33;;;;;;;;;;;18.70;55.20;;;;;;5048155;27;92221;-62
2023/09/28 07:08:59;;;;;;;;;;;18.60;55.10;;;;;;5044689;27;93148;-62
2023/09/28 07:11:26;;;;;;;;;;;18.60;55.10;;;;;;5045226;28;91439;-61
2023/09/28 07:13:52;;;;;;;;;;;18.60;55.10;;;;;;5044987;28;92001;-61
2023/09/28 07:16:17;;;;;;;;;;;18.70;55.20;;;;;;5043618;28;93644;-61
2023/09/28 07:18:43;;;;;;;;;;;18.70;55.20;;;;;;5044318;28;93132;-62
2023/09/28 07:21:08;;;;;;;;;;;18.60;55.10;;;;;;5044768;28;94014;-61
2023/09/28 07:23:36;;;;;;;;;;;18.60;55.20;;;;;;5044202;28;93271;-61
2023/09/28 07:26:02;;;;;;;;;;;18.60;55.20;;;;;;5044857;27;92098;-61
2023/09/28 07:28:28;;;;;;;;;;;18.60;55.10;;;;;;5047278;28;92508;-61
2023/09/28 07:30:54;;;;;;;;;;;18.70;55.20;;;;;;5044370;27;92209;-62
2023/09/28 07:33:20;;;;;;;;;;;18.60;55.10;;;;;;5044824;28;92459;-61
2023/09/28 07:35:45;;;;;;;;;;;18.70;55.20;;;;;;5044516;27;92728;-61
2023/09/28 07:38:11;;;;;;;;;;;18.60;55.20;;;;;;5039734;27;92250;-59
2023/09/28 07:40:37;;;;;;;;;;;18.60;55.40;;;;;;5041200;28;92069;-61
2023/09/28 07:43:03;;;;;;;;;;;18.60;55.30;;;;;;5040122;27;94105;-61
2023/09/28 07:45:28;;;;;;;;;;;18.60;55.50;;;;;;5041143;27;92099;-61
2023/09/28 07:47:54;;;;;;;;;;;18.60;55.50;;;;;;5043207;28;92925;-61
2023/09/28 07:50:21;;;;;;;;;;;18.60;55.50;;;;;;5041255;27;92881;-61
2023/09/28 07:52:47;;;;;;;;;;;18.60;55.50;;;;;;5037132;28;92055;-61
2023/09/28 07:55:13;;;;;;;;;;;18.60;55.60;;;;;;5040526;28;92638;-61
2023/09/28 07:57:39;;;;;;;;;;;18.60;55.60;;;;;;5041096;27;92171;-62
2023/09/28 08:00:06;;;;;;;;;;;18.60;55.70;;;;;;5041533;27;92514;-62
2023/09/28 08:02:32;;;;;;;;;;;18.60;55.70;;;;;;5038600;28;93330;-61
2023/09/28 08:04:58;;;;;;;;;;;18.60;55.60;;;;;;5040845;28;92481;-62
2023/09/28 08:07:24;;;;;;;;;;;18.60;55.60;;;;;;5040355;28;93003;-61
2023/09/28 08:09:49;;;;;;;;;;;18.60;55.90;;;;;;5043422;28;93729;-61
2023/09/28 08:12:15;;;;;;;;;;;18.60;55.80;;;;;;5040950;28;92441;-61
2023/09/28 08:14:42;;;;;;;;;;;18.60;56.00;;;;;;5040330;28;92939;-61
2023/09/28 08:17:09;;;;;;;;;;;18.60;56.00;;;;;;5040855;27;92439;-61
2023/09/28 08:19:36;;;;;;;;;;;18.60;56.00;;;;;;5040946;28;92703;-61
2023/09/28 08:22:03;;;;;;;;;;;18.60;56.20;;;;;;5040035;28;93182;-61
2023/09/28 08:24:29;;;;;;;;;;;18.60;56.00;;;;;;5041051;27;91977;-61
2023/09/28 08:26:55;;;;;;;;;;;18.60;56.30;;;;;;5040558;27;92117;-61
2023/09/28 08:29:20;;;;;;;;;;;18.60;56.40;;;;;;5039907;27;93269;-61
2023/09/28 08:31:46;;;;;;;;;;;18.60;56.30;;;;;;5042735;27;93135;-61
2023/09/28 08:34:13;;;;;;;;;;;18.60;56.40;;;;;;5040197;27;93158;-61
2023/09/28 08:36:38;;;;;;;;;;;18.60;56.40;;;;;;5040156;27;92126;-62
2023/09/28 08:39:06;;;;;;;;;;;18.60;56.50;;;;;;5040436;27;93147;-61
2023/09/28 08:41:34;;;;;;;;;;;18.60;56.50;;;;;;5039829;27;93370;-62
2023/09/28 08:44:05;;;;;;;;;;;18.60;56.40;;;;;;5040250;28;92203;-61
2023/09/28 08:46:38;;;;;;;;;;;18.60;56.50;;;;;;5039684;27;92428;-61
2023/09/28 08:49:05;;;;;;;;;;;18.70;56.50;;;;;;5039828;27;92425;-61
2023/09/28 08:51:31;;;;;;;;;;;18.70;56.50;;;;;;5040255;28;92203;-60
2023/09/28 08:53:58;;;;;;;;;;;18.70;56.60;;;;;;5042800;27;92537;-61
2023/09/28 08:56:25;;;;;;;;;;;18.70;56.50;;;;;;5039453;28;93175;-61
2023/09/28 08:58:50;;;;;;;;;;;18.70;56.70;;;;;;5040172;27;93351;-60
2023/09/28 09:01:16;;;;;;;;;;;18.70;56.70;;;;;;5038937;27;93333;-61
2023/09/28 09:03:42;;;;;;;;;;;18.70;56.70;;;;;;5038584;27;92175;-61
2023/09/28 09:06:10;;;;;;;;;;;18.70;56.70;;;;;;5039494;27;92367;-62
2023/09/28 09:08:37;;;;;;;;;;;18.70;56.70;;;;;;5038755;27;93526;-62
2023/09/28 09:11:03;;;;;;;;;;;18.70;56.80;;;;;;5039622;28;92117;-61
2023/09/28 09:13:29;;;;;;;;;;;18.70;56.80;;;;;;5040171;27;92553;-61
2023/09/28 09:15:55;;;;;;;;;;;18.70;56.60;;;;;;5042116;27;93202;-60
2023/09/28 09:18:24;;;;;;;;;;;18.80;56.80;;;;;;5038282;28;92992;-62
2023/09/28 09:20:52;;;;;;;;;;;18.80;56.80;;;;;;5037972;28;94201;-61
2023/09/28 09:23:18;;;;;;;;;;;18.80;56.90;;;;;;5039183;27;92125;-61
2023/09/28 09:25:44;;;;;;;;;;;18.80;56.90;;;;;;5039377;27;92602;-61
2023/09/28 09:28:10;;;;;;;;;;;18.80;56.90;;;;;;5039020;28;93493;-62
2023/09/28 09:30:36;;;;;;;;;;;18.80;57.00;;;;;;5039677;28;92199;-61
2023/09/28 09:33:04;;;;;;;;;;;18.80;57.00;;;;;;5039362;27;92841;-61
2023/09/28 09:35:31;;;;;;;;;;;18.80;57.00;;;;;;5038726;27;93189;-61
2023/09/28 09:37:56;;;;;;;;;;;18.80;57.00;;;;;;5043025;27;91672;-61
2023/09/28 09:40:22;;;;;;;;;;;18.80;57.10;;;;;;5038888;27;93311;-61
2023/09/28 09:42:48;;;;;;;;;;;18.80;57.10;;;;;;5039872;27;92893;-61
2023/09/28 09:45:13;;;;;;;;;;;18.80;57.20;;;;;;5035015;28;93686;-61
2023/09/28 09:47:46;;;;;;;;;;;18.80;57.20;;;;;;5038399;27;93529;-61
2023/09/28 09:50:14;;;;;;;;;;;18.80;57.20;;;;;;5039538;28;92203;-61
2023/09/28 09:52:41;;;;;;;;;;;18.90;57.30;;;;;;5039549;27;92537;-62
2023/09/28 09:55:08;;;;;;;;;;;18.90;57.20;;;;;;5038651;28;93397;-62
2023/09/28 09:57:37;;;;;;;;;;;18.90;57.20;;;;;;5042363;27;92543;-61
2023/09/28 10:00:04;;;;;;;;;;;18.90;57.40;;;;;;5037438;27;93214;-61
2023/09/28 10:02:34;;;;;;;;;;;18.90;57.40;;;;;;5038303;27;91492;-61
2023/09/28 10:04:59;;;;;;;;;;;19.00;57.40;;;;;;5038793;27;92126;-61
2023/09/28 10:07:26;;;;;;;;;;;19.00;57.30;;;;;;5036420;28;95664;-61
2023/09/28 10:09:53;;;;;;;;;;;19.00;57.20;;;;;;5037920;28;93035;-61
2023/09/28 10:12:19;;;;;;;;;;;18.90;57.20;;;;;;5038506;27;93602;-57
2023/09/28 10:14:45;;;;;;;;;;;19.00;57.30;;;;;;5038556;28;93447;-61
2023/09/28 10:17:11;;;;;;;;;;;19.00;57.20;;;;;;5038917;28;92103;-60
2023/09/28 10:19:37;;;;;;;;;;;19.00;57.20;;;;;;5040564;28;92863;-61
2023/09/28 10:22:03;;;;;;;;;;;19.00;57.30;;;;;;5038389;28;92154;-61
2023/09/28 10:24:30;;;;;;;;;;;19.00;57.30;;;;;;5038732;27;92675;-61
2023/09/28 10:26:56;;;;;;;;;;;19.00;57.90;;;;;;5038489;27;92487;-61
2023/09/28 10:29:32;;;;;;;;;;;19.00;57.30;;;;;;5038339;28;92163;-61
2023/09/28 10:31:58;;;;;;;;;;;19.00;57.30;;;;;;5038502;27;92634;-62
2023/09/28 10:34:24;;;;;;;;;;;19.10;57.30;;;;;;5036672;28;94048;-61
2023/09/28 10:37:10;;;;;;;;;;;19.10;57.20;;;;;;5038117;28;92550;-61
2023/09/28 10:39:36;;;;;;;;;;;19.10;57.20;;;;;;5035335;28;92484;-61
2023/09/28 10:42:08;;;;;;;;;;;19.10;57.30;;;;;;5040354;27;93152;-61
2023/09/28 10:44:34;;;;;;;;;;;19.10;57.20;;;;;;5038515;28;92166;-61
2023/09/28 10:46:59;;;;;;;;;;;19.10;57.20;;;;;;5038204;27;92226;-61
2023/09/28 10:49:26;;;;;;;;;;;19.20;57.20;;;;;;5037952;28;92242;-61
2023/09/28 10:51:52;;;;;;;;;;;19.10;57.20;;;;;;5034795;28;91556;-61
2023/09/28 10:54:18;;;;;;;;;;;19.20;57.20;;;;;;5037852;28;93230;-60
2023/09/28 10:56:48;;;;;;;;;;;19.20;57.20;;;;;;5037997;28;92148;-61
2023/09/28 10:59:13;;;;;;;;;;;19.20;57.30;;;;;;5037598;28;93402;-62
2023/09/28 11:01:39;;;;;;;;;;;19.20;57.20;;;;;;5037282;28;92564;-61
2023/09/28 11:04:05;;;;;;;;;;;19.20;57.20;;;;;;5040848;27;92216;-61
2023/09/28 11:06:30;;;;;;;;;;;19.30;57.20;;;;;;5037618;28;93406;-61
2023/09/28 11:08:57;;;;;;;;;;;19.30;57.20;;;;;;5038396;27;92538;-61
2023/09/28 11:11:23;;;;;;;;;;;19.30;57.20;;;;;;5039175;27;93495;-61
2023/09/28 11:13:48;;;;;;;;;;;19.30;57.20;;;;;;5040984;28;93174;-61
2023/09/28 11:16:16;;;;;;;;;;;19.30;57.20;;;;;;5042224;27;91343;-61
2023/09/28 11:18:41;;;;;;;;;;;19.30;57.30;;;;;;5041110;27;92115;-61
2023/09/28 11:21:07;;;;;;;;;;;19.30;57.40;;;;;;5041012;28;94294;-61
2023/09/28 11:23:32;;;;;;;;;;;19.30;57.30;;;;;;5040957;28;93175;-61
2023/09/28 11:25:58;;;;;;;;;;;19.40;57.30;;;;;;5044149;27;93321;-61
2023/09/28 11:28:24;;;;;;;;;;;19.40;57.30;;;;;;5041682;27;92059;-62
2023/09/28 11:31:08;;;;;;;;;;;19.40;57.30;;;;;;5041521;28;92897;-62
2023/09/28 11:33:34;;;;;;;;;;;19.40;57.40;;;;;;5037937;28;93612;-61
2023/09/28 11:36:01;;;;;;;;;;;19.40;57.50;;;;;;5041385;28;92169;-61
2023/09/28 11:38:26;;;;;;;;;;;19.40;57.40;;;;;;5041221;28;92691;-61
2023/09/28 11:40:52;;;;;;;;;;;19.50;57.50;;;;;;5041172;27;92603;-62
2023/09/28 11:43:18;;;;;;;;;;;19.50;57.50;;;;;;5041512;27;92405;-61
2023/09/28 11:45:46;;;;;;;;;;;19.40;57.40;;;;;;5043939;28;92955;-61
2023/09/28 11:48:16;;;;;;;;;;;19.50;57.50;;;;;;5039680;27;93139;-61
2023/09/28 11:50:41;;;;;;;;;;;19.50;57.40;;;;;;5040866;27;93580;-61
2023/09/28 11:53:10;;;;;;;;;;;19.50;57.40;;;;;;5039110;28;96586;-61
2023/09/28 11:55:36;;;;;;;;;;;19.50;57.40;;;;;;5041196;28;92277;-61
2023/09/28 11:58:02;;;;;;;;;;;19.50;58.00;;;;;;5041163;27;92802;-61
2023/09/28 12:00:28;;;;;;;;;;;19.50;57.40;;;;;;5040702;28;92689;-61
2023/09/28 12:02:54;;;;;;;;;;;19.50;57.40;;;;;;5040781;28;92173;-61
2023/09/28 12:05:20;;;;;;;;;;;19.60;57.40;;;;;;5041195;27;92408;-61
2023/09/28 12:07:45;;;;;;;;;;;19.60;57.40;;;;;;5043554;27;93189;-61
2023/09/28 12:10:14;;;;;;;;;;;19.60;57.40;;;;;;5041043;27;92088;-61
2023/09/28 12:12:40;;;;;;;;;;;19.60;57.40;;;;;;5035928;28;94079;-61
2023/09/28 12:15:10;;;;;;;;;;;19.70;57.50;;;;;;5040905;27;92290;-62
2023/09/28 12:17:39;;;;;;;;;;;19.60;57.50;;;;;;5040685;27;92032;-62
2023/09/28 12:20:09;;;;;;;;;;;19.60;57.60;;;;;;5039510;27;93549;-61
2023/09/28 12:22:35;;;;;;;;;;;19.60;57.50;;;;;;5035989;28;92129;-61
2023/09/28 12:25:01;;;;;;;;;;;19.70;57.50;;;;;;5040690;28;92593;-61
2023/09/28 12:27:27;;;;;;;;;;;19.70;57.50;;;;;;5040209;28;92991;-61
2023/09/28 12:29:53;;;;;;;;;;;19.70;57.50;;;;;;5044351;27;91313;-61
2023/09/28 12:32:18;;;;;;;;;;;19.70;57.50;;;;;;5039971;28;93477;-61
2023/09/28 12:34:44;;;;;;;;;;;19.70;57.50;;;;;;5040167;28;92163;-61
2023/09/28 12:37:09;;;;;;;;;;;19.70;57.50;;;;;;5039850;28;93237;-61
2023/09/28 12:39:35;;;;;;;;;;;19.70;57.50;;;;;;5039987;27;93542;-61
2023/09/28 12:42:01;;;;;;;;;;;19.80;57.50;;;;;;5040326;27;92787;-61
2023/09/28 12:44:28;;;;;;;;;;;19.80;57.50;;;;;;5040513;27;92577;-62
2023/09/28 12:46:53;;;;;;;;;;;19.80;57.50;;;;;;5039975;28;93194;-61
2023/09/28 12:49:20;;;;;;;;;;;19.80;57.40;;;;;;5039829;28;92324;-61
2023/09/28 12:51:47;;;;;;;;;;;19.80;57.40;;;;;;5042822;27;92503;-61
2023/09/28 12:54:17;;;;;;;;;;;19.80;57.40;;;;;;5040590;27;91448;-61
2023/09/28 12:56:45;;;;;;;;;;;19.80;57.30;;;;;;5039869;28;92167;-61
2023/09/28 12:59:15;;;;;;;;;;;19.80;58.00;;;;;;5039698;27;93528;-61
2023/09/28 13:01:41;;;;;;;;;;;19.90;57.40;;;;;;5039003;27;93121;-61
2023/09/28 13:04:07;;;;;;;;;;;19.90;57.50;;;;;;5040424;27;93856;-61
2023/09/28 13:06:34;;;;;;;;;;;19.90;57.50;;;;;;5039646;27;93313;-62
2023/09/28 13:09:00;;;;;;;;;;;19.90;57.40;;;;;;5039738;27;92162;-60
2023/09/28 13:11:26;;;;;;;;;;;19.90;57.40;;;;;;5039998;27;92885;-61
2023/09/28 13:13:55;;;;;;;;;;;19.90;57.30;;;;;;5042448;28;93763;-61
2023/09/28 13:16:22;;;;;;;;;;;19.90;57.40;;;;;;5039934;27;92935;-62
2023/09/28 13:18:49;;;;;;;;;;;19.90;57.40;;;;;;5035243;28;92555;-61
2023/09/28 13:21:14;;;;;;;;;;;19.90;57.30;;;;;;5039876;27;92103;-62
2023/09/28 13:23:40;;;;;;;;;;;19.90;57.40;;;;;;5039823;28;92606;-61
2023/09/28 13:26:08;;;;;;;;;;;19.90;57.30;;;;;;5038641;27;94061;-61
2023/09/28 13:28:34;;;;;;;;;;;20.00;57.40;;;;;;5039535;27;92157;-61
2023/09/28 13:31:05;;;;;;;;;;;20.00;57.30;;;;;;5039747;27;92060;-61
2023/09/28 13:33:30;;;;;;;;;;;20.00;57.20;;;;;;5036068;28;93395;-62
2023/09/28 13:35:56;;;;;;;;;;;20.00;57.20;;;;;;5041259;27;92113;-61
2023/09/28 13:38:23;;;;;;;;;;;20.00;57.20;;;;;;5039020;27;93171;-61
2023/09/28 13:40:49;;;;;;;;;;;20.00;57.20;;;;;;5039416;27;92162;-61
2023/09/28 13:43:16;;;;;;;;;;;20.10;57.30;;;;;;5039700;28;92651;-61
2023/09/28 13:45:42;;;;;;;;;;;20.10;57.30;;;;;;5038961;27;93148;-61
2023/09/28 13:48:07;;;;;;;;;;;20.10;57.40;;;;;;5039287;27;92209;-61
2023/09/28 13:50:33;;;;;;;;;;;20.10;57.30;;;;;;5038382;28;93191;-61
2023/09/28 13:52:59;;;;;;;;;;;20.10;57.30;;;;;;5038816;27;93145;-62
2023/09/28 13:55:25;;;;;;;;;;;20.10;57.30;;;;;;5042696;27;92187;-61
2023/09/28 13:57:51;;;;;;;;;;;20.10;57.30;;;;;;5038830;27;93445;-61
2023/09/28 14:00:33;;;;;;;;;;;20.10;57.30;;;;;;5039206;27;92166;-61
2023/09/28 14:03:01;;;;;;;;;;;20.20;57.30;;;;;;5036785;28;96668;-60
2023/09/28 14:05:26;;;;;;;;;;;20.20;57.30;;;;;;5038289;28;93358;-61
2023/09/28 14:07:54;;;;;;;;;;;20.20;57.30;;;;;;5039670;27;91451;-61
2023/09/28 14:10:19;;;;;;;;;;;20.20;57.30;;;;;;5039206;28;92096;-61
2023/09/28 14:12:46;;;;;;;;;;;20.20;57.30;;;;;;5038657;28;93445;-61